Time;durP1;ratioP1;P1;durP2;ratioP2;P2;SDS_P1;SDS_P2;PMS_P1;PMS_P2;Temp;Humidity;BMP_temperature;BMP_pressure;BME280_temperature;BME280_humidity;BME280_pressure;Samples;Min_cycle;Max_cycle;Signal;HPM_P1;HPM_P2
2021/04/17 00:00:39;;;;;;;6.78;3.15;;;;;;;;;;5093103;28;20020;-18
2021/04/17 00:03:04;;;;;;;2.70;2.00;;;;;;;;;;5108584;28;20032;-18
2021/04/17 00:05:29;;;;;;;4.00;2.63;;;;;;;;;;5092903;28;20098;-18
2021/04/17 00:07:55;;;;;;;3.53;2.75;;;;;;;;;;5091513;28;20028;-18
2021/04/17 00:10:20;;;;;;;5.75;2.33;;;;;;;;;;5091531;28;20020;-18
2021/04/17 00:12:46;;;;;;;5.28;3.35;;;;;;;;;;5092846;28;20020;-18
2021/04/17 00:15:12;;;;;;;5.57;2.72;;;;;;;;;;5092778;28;20043;-18
2021/04/17 00:17:37;;;;;;;5.22;3.05;;;;;;;;;;5092690;28;20027;-18
2021/04/17 00:20:03;;;;;;;5.72;2.95;;;;;;;;;;5092892;28;20048;-18
2021/04/17 00:22:28;;;;;;;6.10;3.03;;;;;;;;;;5092785;28;20051;-18
2021/04/17 00:24:54;;;;;;;4.05;2.47;;;;;;;;;;5092220;28;20053;-18
2021/04/17 00:27:19;;;;;;;6.57;3.10;;;;;;;;;;5092727;28;20063;-18
2021/04/17 00:29:44;;;;;;;3.72;2.75;;;;;;;;;;5092584;28;20107;-18
2021/04/17 00:32:10;;;;;;;6.45;3.22;;;;;;;;;;5092059;28;20056;-18
2021/04/17 00:34:36;;;;;;;4.07;1.95;;;;;;;;;;5092542;28;20016;-18
2021/04/17 00:37:02;;;;;;;4.43;2.10;;;;;;;;;;5092763;28;20028;-18
2021/04/17 00:39:27;;;;;;;6.05;3.25;;;;;;;;;;5092518;28;20069;-19
2021/04/17 00:41:53;;;;;;;5.47;3.00;;;;;;;;;;5092497;28;20020;-18
2021/04/17 00:44:18;;;;;;;4.32;2.95;;;;;;;;;;5092587;28;20016;-17
2021/04/17 00:46:44;;;;;;;5.03;3.05;;;;;;;;;;5092459;28;20043;-18
2021/04/17 00:49:09;;;;;;;7.53;2.67;;;;;;;;;;5092401;28;20016;-18
2021/04/17 00:51:35;;;;;;;3.50;2.58;;;;;;;;;;5091397;28;20032;-18
2021/04/17 00:54:02;;;;;;;5.13;2.83;;;;;;;;;;5092532;28;20013;-18
2021/04/17 00:56:27;;;;;;;4.63;2.85;;;;;;;;;;5092259;28;20170;-18
2021/04/17 00:58:52;;;;;;;4.43;2.85;;;;;;;;;;5092548;28;20020;-18
2021/04/17 01:01:19;;;;;;;6.40;3.10;;;;;;;;;;5091366;28;20539;-18
2021/04/17 01:03:47;;;;;;;4.30;2.63;;;;;;;;;;5092231;28;20016;-18
2021/04/17 01:06:22;;;;;;;6.65;3.42;;;;;;;;;;5092366;28;20040;-18
2021/04/17 01:08:53;;;;;;;4.88;3.10;;;;;;;;;;5092458;28;20215;-18
2021/04/17 01:11:28;;;;;;;5.35;3.13;;;;;;;;;;5090977;28;20469;-18
2021/04/17 01:13:54;;;;;;;5.40;2.85;;;;;;;;;;5107851;28;20024;-18
2021/04/17 01:16:19;;;;;;;4.82;3.60;;;;;;;;;;5092216;28;20050;-18
2021/04/17 01:18:45;;;;;;;7.55;3.70;;;;;;;;;;5092080;28;20064;-18
2021/04/17 01:21:11;;;;;;;4.55;3.15;;;;;;;;;;5092293;28;20085;-18
2021/04/17 01:23:40;;;;;;;4.32;2.50;;;;;;;;;;5091917;28;20044;-17
2021/04/17 01:26:11;;;;;;;2.60;2.00;;;;;;;;;;5091930;28;20048;-18
2021/04/17 01:28:38;;;;;;;6.82;3.25;;;;;;;;;;5092020;28;20475;-18
2021/04/17 01:31:04;;;;;;;8.20;3.70;;;;;;;;;;5091960;28;20494;-18
2021/04/17 01:33:32;;;;;;;8.52;3.80;;;;;;;;;;5091944;28;20024;-18
2021/04/17 01:35:58;;;;;;;5.95;3.03;;;;;;;;;;5091846;28;20509;-17
2021/04/17 01:38:27;;;;;;;3.92;2.25;;;;;;;;;;5091963;28;20060;-17
2021/04/17 01:40:58;;;;;;;4.80;3.03;;;;;;;;;;5091883;28;20032;-18
2021/04/17 01:43:26;;;;;;;7.05;2.53;;;;;;;;;;5091764;28;20050;-18
2021/04/17 01:45:52;;;;;;;7.38;4.05;;;;;;;;;;5095683;28;20080;-18
2021/04/17 01:48:18;;;;;;;4.07;2.28;;;;;;;;;;5095584;28;20103;-18
2021/04/17 01:50:45;;;;;;;4.68;2.90;;;;;;;;;;5095747;28;20512;-18
2021/04/17 01:53:14;;;;;;;4.05;2.25;;;;;;;;;;5095675;28;20024;-17
2021/04/17 01:55:40;;;;;;;5.38;3.33;;;;;;;;;;5095629;28;20065;-18
2021/04/17 01:58:05;;;;;;;7.07;3.15;;;;;;;;;;5095308;28;20109;-18
2021/04/17 02:00:31;;;;;;;5.13;3.22;;;;;;;;;;5095620;28;20028;-18
2021/04/17 02:02:56;;;;;;;9.07;3.88;;;;;;;;;;5095177;28;20486;-18
2021/04/17 02:05:22;;;;;;;7.70;2.33;;;;;;;;;;5093807;28;20115;-23
2021/04/17 02:07:47;;;;;;;6.75;3.85;;;;;;;;;;5095455;28;20348;-18
2021/04/17 02:10:13;;;;;;;4.75;2.75;;;;;;;;;;5095374;28;20028;-18
2021/04/17 02:12:38;;;;;;;7.38;3.38;;;;;;;;;;5095077;28;20115;-18
2021/04/17 02:15:04;;;;;;;5.75;2.53;;;;;;;;;;5095283;28;20020;-18
2021/04/17 02:17:39;;;;;;;6.50;3.05;;;;;;;;;;5093667;28;20028;-23
2021/04/17 02:20:08;;;;;;;4.55;2.97;;;;;;;;;;5095129;28;20032;-17
2021/04/17 02:22:34;;;;;;;5.80;2.97;;;;;;;;;;5095257;28;20059;-18
2021/04/17 02:25:01;;;;;;;4.00;2.33;;;;;;;;;;5094518;28;20431;-18
2021/04/17 02:27:26;;;;;;;7.05;3.28;;;;;;;;;;5094818;28;20463;-18
2021/04/17 02:29:53;;;;;;;7.72;3.78;;;;;;;;;;5094791;28;20107;-18
2021/04/17 02:32:18;;;;;;;4.15;3.13;;;;;;;;;;5094712;28;20027;-25
2021/04/17 02:34:44;;;;;;;4.55;3.50;;;;;;;;;;5095031;28;20032;-18
2021/04/17 02:37:09;;;;;;;5.57;3.50;;;;;;;;;;5094555;28;20032;-18
2021/04/17 02:39:35;;;;;;;4.82;3.15;;;;;;;;;;5094562;28;20028;-18
2021/04/17 02:42:01;;;;;;;5.88;2.90;;;;;;;;;;5094490;28;20054;-18
2021/04/17 02:44:26;;;;;;;4.63;2.53;;;;;;;;;;5094386;28;20115;-18
2021/04/17 02:46:52;;;;;;;5.30;3.90;;;;;;;;;;5094393;28;20024;-18
2021/04/17 02:49:17;;;;;;;5.10;2.65;;;;;;;;;;5093098;28;20497;-18
2021/04/17 02:51:42;;;;;;;5.35;3.40;;;;;;;;;;5094399;28;20020;-18
2021/04/17 02:54:08;;;;;;;5.30;3.17;;;;;;;;;;5094162;28;20059;-18
2021/04/17 02:56:33;;;;;;;5.10;3.35;;;;;;;;;;5094161;28;20024;-18
2021/04/17 02:58:59;;;;;;;5.28;3.38;;;;;;;;;;5094158;28;20039;-17
2021/04/17 03:01:24;;;;;;;5.43;2.85;;;;;;;;;;5094405;28;20028;-17
2021/04/17 03:03:49;;;;;;;5.47;3.42;;;;;;;;;;5094090;28;20032;-18
2021/04/17 03:06:15;;;;;;;4.47;3.58;;;;;;;;;;5093982;28;20032;-18
2021/04/17 03:08:40;;;;;;;3.33;2.58;;;;;;;;;;5093958;28;20032;-18
2021/04/17 03:11:05;;;;;;;5.85;3.50;;;;;;;;;;5092649;28;20055;-18
2021/04/17 03:13:31;;;;;;;5.53;3.47;;;;;;;;;;5094180;28;20024;-17
2021/04/17 03:15:56;;;;;;;8.25;4.38;;;;;;;;;;5093777;28;20022;-18
2021/04/17 03:18:22;;;;;;;4.85;3.03;;;;;;;;;;5093898;28;20028;-18
2021/04/17 03:20:48;;;;;;;3.72;2.17;;;;;;;;;;5093758;28;20032;-18
2021/04/17 03:23:13;;;;;;;5.13;3.45;;;;;;;;;;5092195;28;20127;-17
2021/04/17 03:25:38;;;;;;;4.47;3.05;;;;;;;;;;5093641;28;20092;-18
2021/04/17 03:28:04;;;;;;;4.55;3.15;;;;;;;;;;5093620;28;20039;-18
2021/04/17 03:30:30;;;;;;;5.10;3.72;;;;;;;;;;5093566;28;20027;-17
2021/04/17 03:32:56;;;;;;;8.30;3.85;;;;;;;;;;5092106;28;20031;-18
2021/04/17 03:35:22;;;;;;;5.85;3.38;;;;;;;;;;5092164;28;20429;-18
2021/04/17 03:37:47;;;;;;;4.65;3.33;;;;;;;;;;5093445;28;20024;-18
2021/04/17 03:40:13;;;;;;;5.63;3.65;;;;;;;;;;5092087;28;20024;-18
2021/04/17 03:42:39;;;;;;;5.95;4.30;;;;;;;;;;5093337;28;20024;-18
2021/04/17 03:45:05;;;;;;;5.28;3.15;;;;;;;;;;5093129;28;20032;-18
2021/04/17 03:47:31;;;;;;;4.95;3.40;;;;;;;;;;5093601;28;20032;-18
2021/04/17 03:49:56;;;;;;;5.10;3.03;;;;;;;;;;5093377;28;20470;-18
2021/04/17 03:52:21;;;;;;;5.72;3.15;;;;;;;;;;5093153;28;20467;-18
2021/04/17 03:54:47;;;;;;;4.72;3.20;;;;;;;;;;5093187;28;20024;-18
2021/04/17 03:57:12;;;;;;;6.20;3.63;;;;;;;;;;5093192;28;20030;-18
2021/04/17 03:59:38;;;;;;;7.60;3.78;;;;;;;;;;5093077;28;20463;-18
2021/04/17 04:02:04;;;;;;;4.63;3.00;;;;;;;;;;5093292;28;20070;-18
2021/04/17 04:04:29;;;;;;;7.47;3.63;;;;;;;;;;5092880;28;20044;-18
2021/04/17 04:06:55;;;;;;;4.28;3.22;;;;;;;;;;5092495;28;20095;-18
2021/04/17 04:09:20;;;;;;;4.00;3.28;;;;;;;;;;5093208;28;20412;-18
2021/04/17 04:11:45;;;;;;;5.95;3.35;;;;;;;;;;5092876;28;20103;-18
2021/04/17 04:14:11;;;;;;;5.20;3.60;;;;;;;;;;5092826;28;20020;-18
2021/04/17 04:16:36;;;;;;;4.68;2.70;;;;;;;;;;5093074;28;20142;-18
2021/04/17 04:19:02;;;;;;;4.97;3.42;;;;;;;;;;5092928;28;20471;-18
2021/04/17 04:21:27;;;;;;;4.95;3.50;;;;;;;;;;5092788;28;20028;-18
2021/04/17 04:23:53;;;;;;;5.18;3.72;;;;;;;;;;5092590;28;20133;-18
2021/04/17 04:26:19;;;;;;;6.53;3.88;;;;;;;;;;5092836;28;20048;-18
2021/04/17 04:28:44;;;;;;;4.97;3.08;;;;;;;;;;5092969;28;20031;-18
2021/04/17 04:31:10;;;;;;;4.82;3.50;;;;;;;;;;5092496;28;20441;-18
2021/04/17 04:33:35;;;;;;;5.28;3.55;;;;;;;;;;5092752;28;20054;-18
2021/04/17 04:36:01;;;;;;;4.40;3.13;;;;;;;;;;5092377;28;20382;-18
2021/04/17 04:38:26;;;;;;;6.57;3.00;;;;;;;;;;5092787;28;20028;-18
2021/04/17 04:40:51;;;;;;;5.35;3.25;;;;;;;;;;5108306;28;20090;-18
2021/04/17 04:43:17;;;;;;;5.45;3.08;;;;;;;;;;5092664;28;20470;-17
2021/04/17 04:45:42;;;;;;;4.78;3.22;;;;;;;;;;5091027;28;20044;-18
2021/04/17 04:48:09;;;;;;;6.47;3.40;;;;;;;;;;5091029;28;20012;-17
2021/04/17 04:50:35;;;;;;;5.10;3.80;;;;;;;;;;5092454;28;20035;-18
2021/04/17 04:53:00;;;;;;;4.80;3.20;;;;;;;;;;5092608;28;20016;-17
2021/04/17 04:55:26;;;;;;;3.15;2.28;;;;;;;;;;5092109;28;20036;-17
2021/04/17 04:57:51;;;;;;;4.75;3.50;;;;;;;;;;5092036;28;20017;-18
2021/04/17 05:00:17;;;;;;;6.47;3.85;;;;;;;;;;5091837;28;20063;-18
2021/04/17 05:02:42;;;;;;;5.60;3.83;;;;;;;;;;5092002;28;20044;-18
2021/04/17 05:05:08;;;;;;;7.97;3.72;;;;;;;;;;5090804;28;20040;-18
2021/04/17 05:07:33;;;;;;;4.35;2.55;;;;;;;;;;5092549;28;20033;-18
2021/04/17 05:09:59;;;;;;;5.45;3.40;;;;;;;;;;5090522;28;20421;-18
2021/04/17 05:12:24;;;;;;;7.03;5.05;;;;;;;;;;5092030;28;20016;-19
2021/04/17 05:14:49;;;;;;;5.18;3.67;;;;;;;;;;5092177;28;20066;-19
2021/04/17 05:17:15;;;;;;;6.90;4.47;;;;;;;;;;5090697;28;20024;-18
2021/04/17 05:19:41;;;;;;;5.07;3.97;;;;;;;;;;5095821;28;20028;-25
2021/04/17 05:22:07;;;;;;;6.25;4.35;;;;;;;;;;5095899;28;20339;-18
2021/04/17 05:24:33;;;;;;;5.47;3.58;;;;;;;;;;5095821;28;20048;-18
2021/04/17 05:26:58;;;;;;;4.97;4.03;;;;;;;;;;5111595;28;20431;-18
2021/04/17 05:29:24;;;;;;;5.65;3.78;;;;;;;;;;5096246;28;20070;-18
2021/04/17 05:31:49;;;;;;;6.88;3.72;;;;;;;;;;5094364;28;20056;-18
2021/04/17 05:34:14;;;;;;;5.38;3.90;;;;;;;;;;5095428;28;20048;-18
2021/04/17 05:36:40;;;;;;;5.57;3.10;;;;;;;;;;5094534;28;20024;-18
2021/04/17 05:39:05;;;;;;;5.20;4.30;;;;;;;;;;5095904;28;20039;-18
2021/04/17 05:41:31;;;;;;;6.05;3.15;;;;;;;;;;5095674;28;20016;-19
2021/04/17 05:43:57;;;;;;;7.70;4.75;;;;;;;;;;5095356;28;20020;-19
2021/04/17 05:46:22;;;;;;;5.13;3.88;;;;;;;;;;5095461;28;20036;-18
2021/04/17 05:48:48;;;;;;;4.15;3.30;;;;;;;;;;5095655;28;20463;-18
2021/04/17 05:51:13;;;;;;;4.75;3.53;;;;;;;;;;5095356;28;20039;-18
2021/04/17 05:53:39;;;;;;;5.30;3.95;;;;;;;;;;5095711;28;20067;-18
2021/04/17 05:56:05;;;;;;;6.20;3.28;;;;;;;;;;5095108;28;20036;-19
2021/04/17 05:58:30;;;;;;;4.80;3.45;;;;;;;;;;5095300;28;20070;-18
2021/04/17 06:00:56;;;;;;;4.95;3.85;;;;;;;;;;5095546;28;20020;-18
2021/04/17 06:03:21;;;;;;;6.22;3.55;;;;;;;;;;5095221;28;20420;-17
2021/04/17 06:05:46;;;;;;;6.20;3.65;;;;;;;;;;5095178;28;20035;-18
2021/04/17 06:08:12;;;;;;;2.90;2.30;;;;;;;;;;5095418;28;20032;-17
2021/04/17 06:10:38;;;;;;;4.30;2.88;;;;;;;;;;5095308;28;20025;-18
2021/04/17 06:13:04;;;;;;;4.55;3.58;;;;;;;;;;5094062;28;20382;-17
2021/04/17 06:15:29;;;;;;;4.45;3.50;;;;;;;;;;5095092;28;20370;-18
2021/04/17 06:17:54;;;;;;;3.90;2.75;;;;;;;;;;5110793;28;20074;-19
2021/04/17 06:20:20;;;;;;;7.18;3.78;;;;;;;;;;5094937;28;20153;-18
2021/04/17 06:22:45;;;;;;;7.32;3.50;;;;;;;;;;5094934;28;20074;-19
2021/04/17 06:25:11;;;;;;;4.20;2.40;;;;;;;;;;5094657;28;20048;-19
2021/04/17 06:27:36;;;;;;;5.05;2.92;;;;;;;;;;5094855;28;20035;-19
2021/04/17 06:30:02;;;;;;;4.95;3.35;;;;;;;;;;5109768;28;20367;-19
2021/04/17 06:32:28;;;;;;;6.35;3.72;;;;;;;;;;5094734;28;20036;-19
2021/04/17 06:34:53;;;;;;;5.55;3.55;;;;;;;;;;5094828;28;20077;-19
2021/04/17 06:37:19;;;;;;;3.97;3.10;;;;;;;;;;5094715;28;20032;-19
2021/04/17 06:39:44;;;;;;;4.93;3.40;;;;;;;;;;5093376;28;20027;-20
2021/04/17 06:42:12;;;;;;;4.65;4.05;;;;;;;;;;5110077;28;20036;-19
2021/04/17 06:44:41;;;;;;;4.70;3.85;;;;;;;;;;5094438;28;20045;-19
2021/04/17 06:47:06;;;;;;;5.43;3.80;;;;;;;;;;5094425;28;20032;-18
2021/04/17 06:49:32;;;;;;;4.97;3.15;;;;;;;;;;5094321;28;20058;-19
2021/04/17 06:51:58;;;;;;;4.03;2.75;;;;;;;;;;5094261;28;20085;-19
2021/04/17 06:54:25;;;;;;;5.22;3.00;;;;;;;;;;5094227;28;20691;-19
2021/04/17 06:56:51;;;;;;;8.15;3.83;;;;;;;;;;5094021;28;20463;-19
2021/04/17 06:59:16;;;;;;;5.10;3.72;;;;;;;;;;5109949;28;20027;-19
2021/04/17 07:01:42;;;;;;;4.93;3.45;;;;;;;;;;5092777;28;20398;-19
2021/04/17 07:04:08;;;;;;;3.30;3.00;;;;;;;;;;5094338;28;20040;-19
2021/04/17 07:06:34;;;;;;;7.45;3.88;;;;;;;;;;5093994;28;20040;-19
2021/04/17 07:08:59;;;;;;;4.63;3.60;;;;;;;;;;5094155;28;20016;-19
2021/04/17 07:11:25;;;;;;;5.97;3.95;;;;;;;;;;5093982;28;20505;-18
2021/04/17 07:14:23;;;;;;;4.82;4.38;;;;;;;;;;5094158;28;20459;-18
2021/04/17 07:16:56;;;;;;;6.65;3.70;;;;;;;;;;5081317;28;20437;-18
2021/04/17 07:19:22;;;;;;;2.65;2.40;;;;;;;;;;5093929;28;20020;-18
2021/04/17 07:21:48;;;;;;;5.55;3.58;;;;;;;;;;5094035;28;20074;-18
2021/04/17 07:24:26;;;;;;;4.63;3.30;;;;;;;;;;5093483;28;20056;-18
2021/04/17 07:26:52;;;;;;;4.90;4.07;;;;;;;;;;5109585;28;20489;-18
2021/04/17 07:29:17;;;;;;;4.03;2.97;;;;;;;;;;5093587;28;20091;-18
2021/04/17 07:31:50;;;;;;;4.38;3.65;;;;;;;;;;5093948;28;20193;-18
2021/04/17 07:34:16;;;;;;;4.43;3.53;;;;;;;;;;5093492;28;20457;-18
2021/04/17 07:37:00;;;;;;;4.80;4.03;;;;;;;;;;5093469;28;20027;-18
2021/04/17 07:39:36;;;;;;;6.38;4.13;;;;;;;;;;5093236;28;20024;-18
2021/04/17 07:42:04;;;;;;;3.92;2.70;;;;;;;;;;5092312;28;20032;-18
2021/04/17 07:44:31;;;;;;;5.40;2.70;;;;;;;;;;5093366;28;20046;-18
2021/04/17 07:46:56;;;;;;;5.47;4.40;;;;;;;;;;5092986;28;20039;-18
2021/04/17 07:49:22;;;;;;;3.92;3.53;;;;;;;;;;5093301;28;20023;-18
2021/04/17 07:51:53;;;;;;;6.45;2.83;;;;;;;;;;5093273;28;20031;-18
2021/04/17 07:54:19;;;;;;;4.25;2.97;;;;;;;;;;5093412;28;20081;-18
2021/04/17 07:56:44;;;;;;;3.50;2.83;;;;;;;;;;5091801;28;20383;-18
2021/04/17 07:59:10;;;;;;;2.15;1.73;;;;;;;;;;5091781;28;20471;-18
2021/04/17 08:01:35;;;;;;;5.20;3.38;;;;;;;;;;5092990;28;20016;-18
2021/04/17 08:04:01;;;;;;;4.55;3.33;;;;;;;;;;5092997;28;20020;-18
2021/04/17 08:06:27;;;;;;;4.60;3.00;;;;;;;;;;5092841;28;20063;-18
2021/04/17 08:08:54;;;;;;;4.25;3.03;;;;;;;;;;5091944;28;20081;-18
2021/04/17 08:11:20;;;;;;;4.30;3.17;;;;;;;;;;5092973;28;20027;-18
2021/04/17 08:13:46;;;;;;;3.25;2.47;;;;;;;;;;5093075;28;20031;-18
2021/04/17 08:16:12;;;;;;;3.75;2.80;;;;;;;;;;5092800;28;20099;-18
2021/04/17 08:18:38;;;;;;;4.35;3.22;;;;;;;;;;5092819;28;20042;-18
2021/04/17 08:21:14;;;;;;;4.20;3.35;;;;;;;;;;5092562;28;20101;-18
2021/04/17 08:23:42;;;;;;;5.65;3.40;;;;;;;;;;5092709;28;20376;-17
2021/04/17 08:26:08;;;;;;;3.55;2.03;;;;;;;;;;5092844;28;20064;-17
2021/04/17 08:28:44;;;;;;;3.75;2.17;;;;;;;;;;5092629;28;20017;-17
2021/04/17 08:31:30;;;;;;;5.97;2.90;;;;;;;;;;5092889;28;20131;-17
2021/04/17 08:34:14;;;;;;;2.50;1.35;;;;;;;;;;5092392;28;20059;-17
2021/04/17 08:37:01;;;;;;;4.07;2.35;;;;;;;;;;5091257;28;20395;-17
2021/04/17 08:39:29;;;;;;;3.63;2.60;;;;;;;;;;5092547;28;20024;-16
2021/04/17 08:41:55;;;;;;;2.38;1.80;;;;;;;;;;5092645;28;20016;-17
2021/04/17 08:44:23;;;;;;;2.88;1.83;;;;;;;;;;5092718;28;20119;-17
2021/04/17 08:46:49;;;;;;;3.78;2.45;;;;;;;;;;5092713;28;20044;-17
2021/04/17 08:49:41;;;;;;;3.05;2.50;;;;;;;;;;5092286;28;20038;-17
2021/04/17 08:52:09;;;;;;;4.20;2.45;;;;;;;;;;5091206;28;20070;-17
2021/04/17 08:54:36;;;;;;;1.92;1.70;;;;;;;;;;5096046;28;20085;-17
2021/04/17 08:57:03;;;;;;;1.85;1.40;;;;;;;;;;5096475;28;20441;-17
2021/04/17 08:59:33;;;;;;;3.15;2.22;;;;;;;;;;5096497;28;20027;-17
2021/04/17 09:02:04;;;;;;;2.38;2.03;;;;;;;;;;5096703;28;20054;-17
2021/04/17 09:04:30;;;;;;;3.97;2.17;;;;;;;;;;5096346;28;20036;-18
2021/04/17 09:06:57;;;;;;;7.40;1.80;;;;;;;;;;5094905;28;20028;-17
2021/04/17 09:09:23;;;;;;;4.82;1.88;;;;;;;;;;5096370;28;20443;-17
2021/04/17 09:11:52;;;;;;;3.78;2.47;;;;;;;;;;5096255;28;20485;-17
2021/04/17 09:14:36;;;;;;;2.10;1.40;;;;;;;;;;5096201;28;20107;-17
2021/04/17 09:17:06;;;;;;;2.35;1.50;;;;;;;;;;5111795;28;20028;-17
2021/04/17 09:19:35;;;;;;;1.73;1.20;;;;;;;;;;5096405;28;20024;-17
2021/04/17 09:22:00;;;;;;;2.83;1.88;;;;;;;;;;5095965;28;20032;-17
2021/04/17 09:24:26;;;;;;;2.88;1.88;;;;;;;;;;5094554;28;20074;-17
2021/04/17 09:26:52;;;;;;;1.95;1.63;;;;;;;;;;5094667;28;20035;-17
2021/04/17 09:29:17;;;;;;;3.03;1.20;;;;;;;;;;5096189;28;20100;-18
2021/04/17 09:31:42;;;;;;;2.42;1.67;;;;;;;;;;5096210;28;20483;-18
2021/04/17 09:34:11;;;;;;;2.67;1.65;;;;;;;;;;5096060;28;20486;-18
2021/04/17 09:36:37;;;;;;;4.75;2.42;;;;;;;;;;5095910;28;20020;-18
2021/04/17 09:39:21;;;;;;;3.28;1.13;;;;;;;;;;5095703;28;20531;-18
2021/04/17 09:41:50;;;;;;;2.72;0.75;;;;;;;;;;5096095;28;20399;-18
2021/04/17 09:44:15;;;;;;;4.13;1.85;;;;;;;;;;5095777;28;20024;-17
2021/04/17 09:46:41;;;;;;;2.55;1.52;;;;;;;;;;5095822;28;20062;-18
2021/04/17 09:49:06;;;;;;;1.83;1.60;;;;;;;;;;5094251;28;20100;-18
2021/04/17 09:51:31;;;;;;;1.48;1.00;;;;;;;;;;5095853;28;20089;-17
2021/04/17 09:54:01;;;;;;;2.80;1.75;;;;;;;;;;5111399;28;20476;-18
2021/04/17 09:56:26;;;;;;;1.98;1.45;;;;;;;;;;5095728;28;20032;-18
2021/04/17 09:58:52;;;;;;;1.83;1.25;;;;;;;;;;5095788;28;20073;-18
2021/04/17 10:01:18;;;;;;;2.00;1.52;;;;;;;;;;5095362;28;20474;-17
2021/04/17 10:03:44;;;;;;;1.45;1.10;;;;;;;;;;5094021;28;20016;-17
2021/04/17 10:06:25;;;;;;;0.60;0.60;;;;;;;;;;5094147;28;20044;-17
2021/04/17 10:08:51;;;;;;;3.78;1.30;;;;;;;;;;5095232;28;20062;-17
2021/04/17 10:11:27;;;;;;;3.65;1.52;;;;;;;;;;5095145;28;20016;-17
2021/04/17 10:13:53;;;;;;;1.80;1.35;;;;;;;;;;5095361;28;20032;-17
2021/04/17 10:16:42;;;;;;;1.20;1.10;;;;;;;;;;5094943;28;20378;-18
2021/04/17 10:19:08;;;;;;;1.20;1.00;;;;;;;;;;5091907;28;20040;-18
2021/04/17 10:21:35;;;;;;;1.67;1.05;;;;;;;;;;5094965;28;20532;-17
2021/04/17 10:24:22;;;;;;;2.08;1.65;;;;;;;;;;5094737;28;20631;-18
2021/04/17 10:27:01;;;;;;;3.38;1.38;;;;;;;;;;5094822;28;20046;-17
2021/04/17 10:29:41;;;;;;;2.63;1.20;;;;;;;;;;5094799;28;20028;-18
2021/04/17 10:32:17;;;;;;;4.35;1.52;;;;;;;;;;5094997;28;20391;-17
2021/04/17 10:34:44;;;;;;;1.70;1.05;;;;;;;;;;5110581;28;20038;-18
2021/04/17 10:37:11;;;;;;;2.35;1.35;;;;;;;;;;5094555;28;20016;-16
2021/04/17 10:39:37;;;;;;;1.42;1.33;;;;;;;;;;5094770;28;20486;-17
2021/04/17 10:42:05;;;;;;;2.05;1.10;;;;;;;;;;5094610;28;20467;-17
2021/04/17 10:44:30;;;;;;;1.20;1.08;;;;;;;;;;5110145;28;20031;-17
2021/04/17 10:46:57;;;;;;;1.73;1.60;;;;;;;;;;5093172;28;20031;-17
2021/04/17 10:49:31;;;;;;;1.48;1.00;;;;;;;;;;5094497;28;20039;-17
2021/04/17 10:51:57;;;;;;;1.63;1.30;;;;;;;;;;5092992;28;20474;-17
2021/04/17 10:54:23;;;;;;;2.17;1.55;;;;;;;;;;5094570;28;20020;-17
2021/04/17 10:57:15;;;;;;;1.98;1.25;;;;;;;;;;5094256;28;20028;-17
2021/04/17 10:59:57;;;;;;;1.60;1.08;;;;;;;;;;5090888;28;20403;-18
2021/04/17 11:02:30;;;;;;;1.27;1.08;;;;;;;;;;5094478;28;20399;-17
2021/04/17 11:04:56;;;;;;;1.73;1.02;;;;;;;;;;5094029;28;20020;-17
2021/04/17 11:07:33;;;;;;;2.17;1.20;;;;;;;;;;5094331;28;20056;-17
2021/04/17 11:09:59;;;;;;;1.33;0.93;;;;;;;;;;5094026;28;20065;-18
2021/04/17 11:12:25;;;;;;;1.70;1.02;;;;;;;;;;5093934;28;20031;-18
2021/04/17 11:14:51;;;;;;;1.95;1.00;;;;;;;;;;5109960;28;20028;-17
2021/04/17 11:17:18;;;;;;;1.38;1.17;;;;;;;;;;5093632;28;20392;-18
2021/04/17 11:19:44;;;;;;;1.08;0.95;;;;;;;;;;5094121;28;20028;-20
2021/04/17 11:22:13;;;;;;;1.05;0.80;;;;;;;;;;5093654;28;20379;-17
2021/04/17 11:24:40;;;;;;;1.20;0.82;;;;;;;;;;5093672;28;20411;-18
2021/04/17 11:27:06;;;;;;;1.48;1.20;;;;;;;;;;5093593;28;20024;-17
2021/04/17 11:29:31;;;;;;;2.08;0.98;;;;;;;;;;5094010;28;20474;-17
2021/04/17 11:31:57;;;;;;;1.58;0.85;;;;;;;;;;5093869;28;20016;-18
2021/04/17 11:34:22;;;;;;;1.75;0.85;;;;;;;;;;5093462;28;20027;-17
2021/04/17 11:36:48;;;;;;;1.13;0.80;;;;;;;;;;5093610;28;20012;-17
2021/04/17 11:39:15;;;;;;;2.40;1.00;;;;;;;;;;5093445;28;20028;-17
2021/04/17 11:41:40;;;;;;;0.80;0.80;;;;;;;;;;5093470;28;20008;-17
2021/04/17 11:44:06;;;;;;;3.95;0.60;;;;;;;;;;5093225;28;20539;-17
2021/04/17 11:46:31;;;;;;;1.05;0.68;;;;;;;;;;5093486;28;20028;-18
2021/04/17 11:48:57;;;;;;;1.60;0.98;;;;;;;;;;5092096;28;20544;-17
2021/04/17 11:51:22;;;;;;;1.33;0.95;;;;;;;;;;5093267;28;20016;-17
2021/04/17 11:53:48;;;;;;;1.17;0.40;;;;;;;;;;5091951;28;20024;-17
2021/04/17 11:56:14;;;;;;;1.50;0.95;;;;;;;;;;5108882;28;20459;-18
2021/04/17 11:58:40;;;;;;;0.90;0.90;;;;;;;;;;5093120;28;20035;-18
2021/04/17 12:01:05;;;;;;;4.45;1.10;;;;;;;;;;5108740;28;20032;-17
2021/04/17 12:03:30;;;;;;;1.05;0.93;;;;;;;;;;5093340;28;20032;-17
2021/04/17 12:05:56;;;;;;;0.70;0.70;;;;;;;;;;5091702;28;20081;-17
2021/04/17 12:08:22;;;;;;;1.35;1.10;;;;;;;;;;5092820;28;20040;-17
2021/04/17 12:10:48;;;;;;;1.00;0.80;;;;;;;;;;5092968;28;20020;-17
2021/04/17 12:13:13;;;;;;;1.75;1.00;;;;;;;;;;5093155;28;20043;-17
2021/04/17 12:15:39;;;;;;;3.05;0.88;;;;;;;;;;5093098;28;20038;-18
2021/04/17 12:18:05;;;;;;;1.52;1.00;;;;;;;;;;5092951;28;20032;-17
2021/04/17 12:20:30;;;;;;;1.45;0.95;;;;;;;;;;5092813;28;20455;-18
2021/04/17 12:22:56;;;;;;;1.58;1.00;;;;;;;;;;5092608;28;20055;-17
2021/04/17 12:25:22;;;;;;;2.55;1.10;;;;;;;;;;5092630;28;20032;-18
2021/04/17 12:27:48;;;;;;;1.30;1.20;;;;;;;;;;5107800;28;20051;-17
2021/04/17 12:30:13;;;;;;;1.30;1.05;;;;;;;;;;5092835;28;20428;-17
2021/04/17 12:32:39;;;;;;;1.77;1.10;;;;;;;;;;5092549;28;20061;-17
2021/04/17 12:35:06;;;;;;;3.25;0.88;;;;;;;;;;5091178;28;20066;-17
2021/04/17 12:37:33;;;;;;;1.13;0.60;;;;;;;;;;5092583;28;20550;-17
2021/04/17 12:39:59;;;;;;;1.10;1.00;;;;;;;;;;5092563;28;20016;-18
2021/04/17 12:42:24;;;;;;;1.98;1.30;;;;;;;;;;5092788;28;20093;-17
2021/04/17 12:44:50;;;;;;;1.55;1.13;;;;;;;;;;5092355;28;20048;-18
2021/04/17 12:47:15;;;;;;;1.02;0.82;;;;;;;;;;5108200;28;20032;-17
2021/04/17 12:49:41;;;;;;;1.80;1.63;;;;;;;;;;5092531;28;20094;-18
2021/04/17 12:52:06;;;;;;;1.50;1.10;;;;;;;;;;5092219;28;20039;-17
2021/04/17 12:54:32;;;;;;;0.70;0.70;;;;;;;;;;5092483;28;20012;-17
2021/04/17 12:56:58;;;;;;;3.45;0.68;;;;;;;;;;5092715;28;20032;-17
2021/04/17 12:59:23;;;;;;;0.93;0.77;;;;;;;;;;5092624;28;20455;-18
2021/04/17 13:01:49;;;;;;;1.92;1.30;;;;;;;;;;5092170;28;20110;-17
2021/04/17 13:04:14;;;;;;;2.20;1.50;;;;;;;;;;5092313;28;20099;-17
2021/04/17 13:06:40;;;;;;;3.03;1.92;;;;;;;;;;5092249;28;20032;-17
2021/04/17 13:09:05;;;;;;;5.18;1.60;;;;;;;;;;5092104;28;20073;-18
2021/04/17 13:11:31;;;;;;;2.90;1.52;;;;;;;;;;5092237;28;20036;-17
2021/04/17 13:13:57;;;;;;;3.47;1.10;;;;;;;;;;5092206;28;20016;-17
2021/04/17 13:16:22;;;;;;;1.33;1.17;;;;;;;;;;5092152;28;20039;-18
2021/04/17 13:18:47;;;;;;;1.42;1.33;;;;;;;;;;5092456;28;20017;-17
2021/04/17 13:21:13;;;;;;;2.03;1.27;;;;;;;;;;5091995;28;20063;-18
2021/04/17 13:23:39;;;;;;;2.63;1.65;;;;;;;;;;5090808;28;20115;-18
2021/04/17 13:26:05;;;;;;;3.67;1.50;;;;;;;;;;5091963;28;20048;-17
2021/04/17 13:28:31;;;;;;;0.57;0.45;;;;;;;;;;5090859;28;20020;-17
2021/04/17 13:30:56;;;;;;;2.15;1.25;;;;;;;;;;5091964;28;20035;-18
2021/04/17 13:33:22;;;;;;;6.45;1.67;;;;;;;;;;5091937;28;20008;-17
2021/04/17 13:35:47;;;;;;;2.42;1.73;;;;;;;;;;5107647;28;20052;-17
2021/04/17 13:38:13;;;;;;;1.45;1.10;;;;;;;;;;5091892;28;20020;-17
2021/04/17 13:40:38;;;;;;;2.88;1.60;;;;;;;;;;5095735;28;20028;-17
2021/04/17 13:43:04;;;;;;;1.60;1.50;;;;;;;;;;5095935;28;20498;-17
2021/04/17 13:45:29;;;;;;;1.20;1.10;;;;;;;;;;5111294;28;20039;-17
2021/04/17 13:47:55;;;;;;;1.52;1.33;;;;;;;;;;5095765;28;20019;-17
2021/04/17 13:50:21;;;;;;;1.25;1.15;;;;;;;;;;5095430;28;20034;-18
2021/04/17 13:52:46;;;;;;;1.67;1.55;;;;;;;;;;5111372;28;20054;-17
2021/04/17 13:55:12;;;;;;;1.10;1.00;;;;;;;;;;5095780;28;20029;-17
2021/04/17 13:57:39;;;;;;;1.73;1.25;;;;;;;;;;5095688;28;20016;-17
2021/04/17 14:00:05;;;;;;;2.25;1.60;;;;;;;;;;5095413;28;20031;-18
2021/04/17 14:02:31;;;;;;;2.42;1.48;;;;;;;;;;5095633;28;20059;-17
2021/04/17 14:04:56;;;;;;;1.77;1.15;;;;;;;;;;5111325;28;20370;-17
2021/04/17 14:07:22;;;;;;;4.22;1.42;;;;;;;;;;5095185;28;20020;-18
2021/04/17 14:09:47;;;;;;;1.77;1.60;;;;;;;;;;5095200;28;20036;-17
2021/04/17 14:12:13;;;;;;;1.95;1.60;;;;;;;;;;5095149;28;20012;-17
2021/04/17 14:14:38;;;;;;;7.35;1.60;;;;;;;;;;5095429;28;20488;-18
2021/04/17 14:17:04;;;;;;;2.65;1.40;;;;;;;;;;5095115;28;20488;-17
2021/04/17 14:19:29;;;;;;;2.90;1.40;;;;;;;;;;5094990;28;20035;-18
2021/04/17 14:21:55;;;;;;;1.60;1.48;;;;;;;;;;5093614;28;20102;-17
2021/04/17 14:24:21;;;;;;;4.20;1.52;;;;;;;;;;5094763;28;20052;-17
2021/04/17 14:26:46;;;;;;;3.65;2.08;;;;;;;;;;5095036;28;20027;-17
2021/04/17 14:29:12;;;;;;;2.15;1.92;;;;;;;;;;5094781;28;20054;-18
2021/04/17 14:31:38;;;;;;;2.05;1.60;;;;;;;;;;5095150;28;20032;-17
2021/04/17 14:34:04;;;;;;;1.88;1.50;;;;;;;;;;5094527;28;20040;-18
2021/04/17 14:36:30;;;;;;;2.88;1.40;;;;;;;;;;5094858;28;20026;-18
2021/04/17 14:38:56;;;;;;;2.78;2.05;;;;;;;;;;5095017;28;20020;-17
2021/04/17 14:41:21;;;;;;;2.20;1.35;;;;;;;;;;5094549;28;20502;-18